createdAt,value
2023-03-17T00:01:24.112Z,1.22
2023-03-17T00:03:52.914Z,1.18
2023-03-17T00:06:29.551Z,1.12
2023-03-17T00:08:58.366Z,1.08
2023-03-17T00:11:28.034Z,1.05
2023-03-17T00:13:56.080Z,1.03
2023-03-17T00:16:27.359Z,1.01
2023-03-17T00:18:57.648Z,0.98
2023-03-17T00:21:32.246Z,0.94
2023-03-17T00:24:01.540Z,0.88
2023-03-17T00:26:29.583Z,0.88
2023-03-17T00:28:58.916Z,0.92
2023-03-17T00:31:29.865Z,0.97
2023-03-17T00:33:58.499Z,1.03
2023-03-17T00:36:29.585Z,1.07
2023-03-17T00:38:58.846Z,1.08
2023-03-17T00:41:27.418Z,1.08
2023-03-17T00:43:55.592Z,1.08
2023-03-17T00:46:28.841Z,1.06
2023-03-17T00:48:58.609Z,1.02
2023-03-17T00:51:27.113Z,0.99
2023-03-17T00:53:56.675Z,0.99
2023-03-17T00:56:24.784Z,1.01
2023-03-17T00:58:53.500Z,1.05
2023-03-17T01:01:21.696Z,1.08
2023-03-17T01:03:49.807Z,1.08
2023-03-17T01:06:17.836Z,1.04
2023-03-17T01:08:46.627Z,1.05
2023-03-17T01:11:19.004Z,1.03
2023-03-17T01:13:48.388Z,1.02
2023-03-17T01:16:17.177Z,1.03
2023-03-17T01:18:45.794Z,1.03
2023-03-17T01:21:14.162Z,1.02
2023-03-17T01:23:43.623Z,1.01
2023-03-17T01:26:11.847Z,0.94
2023-03-17T01:28:40.713Z,0.85
2023-03-17T01:31:09.757Z,0.76
2023-03-17T01:33:38.320Z,0.64
2023-03-17T01:36:06.805Z,0.57
2023-03-17T01:39:15.627Z,0.51
2023-03-17T01:41:43.919Z,0.43
2023-03-17T01:44:17.360Z,0.36
2023-03-17T01:46:47.532Z,0.34
2023-03-17T01:49:43.301Z,0.34
2023-03-17T01:52:18.244Z,0.34
2023-03-17T01:55:02.293Z,0.32
2023-03-17T01:57:37.231Z,0.26
2023-03-17T02:00:08.618Z,0.19
2023-03-17T02:02:45.502Z,0.13
2023-03-17T02:05:18.142Z,0.11
2023-03-17T02:07:47.262Z,0.10
2023-03-17T02:10:19.570Z,0.10
2023-03-17T02:12:53.241Z,0.09
2023-03-17T02:15:21.776Z,0.07
2023-03-17T02:17:49.995Z,0.04
2023-03-17T02:20:24.001Z,-0.01
2023-03-17T02:22:55.105Z,-0.04
2023-03-17T02:25:26.415Z,-0.06
2023-03-17T02:28:00.097Z,-0.10
2023-03-17T02:30:29.140Z,-0.13
2023-03-17T02:32:57.457Z,-0.13
2023-03-17T02:35:25.524Z,-0.11
2023-03-17T02:37:53.460Z,-0.06
2023-03-17T02:40:41.937Z,-0.04
2023-03-17T02:43:10.734Z,0.02
2023-03-17T02:45:38.676Z,0.08
2023-03-17T02:48:07.388Z,0.15
2023-03-17T02:50:35.646Z,0.17
2023-03-17T02:53:03.556Z,0.15
2023-03-17T02:55:31.851Z,0.11
2023-03-17T02:58:01.879Z,0.11
2023-03-17T03:00:30.327Z,0.10
2023-03-17T03:02:58.620Z,0.04
2023-03-17T03:05:27.040Z,-0.04
2023-03-17T03:07:55.308Z,-0.13
2023-03-17T03:10:44.399Z,-0.18
2023-03-17T03:13:12.616Z,-0.16
2023-03-17T03:15:42.708Z,-0.11
2023-03-17T03:18:10.710Z,-0.08
2023-03-17T03:20:38.880Z,-0.08
2023-03-17T03:23:06.695Z,-0.10
2023-03-17T03:25:37.762Z,-0.13
2023-03-17T03:28:08.341Z,-0.16
2023-03-17T03:30:37.241Z,-0.23
2023-03-17T03:33:05.698Z,-0.27
2023-03-17T03:35:34.631Z,-0.31
2023-03-17T03:38:02.779Z,-0.32
2023-03-17T03:40:31.412Z,-0.31
2023-03-17T03:42:59.925Z,-0.30
2023-03-17T03:45:29.936Z,-0.27
2023-03-17T03:47:57.802Z,-0.23
2023-03-17T03:50:25.928Z,-0.21
2023-03-17T03:52:54.346Z,-0.19
2023-03-17T03:55:22.495Z,-0.16
2023-03-17T03:57:50.345Z,-0.17
2023-03-17T04:00:19.820Z,-0.17
2023-03-17T04:02:47.779Z,-0.17
2023-03-17T04:05:18.912Z,-0.16
2023-03-17T04:07:47.957Z,-0.17
2023-03-17T04:10:17.021Z,-0.17
2023-03-17T04:12:46.885Z,-0.19
2023-03-17T04:15:17.860Z,-0.21
2023-03-17T04:17:46.522Z,-0.25
2023-03-17T04:20:16.564Z,-0.27
2023-03-17T04:22:45.216Z,-0.31
2023-03-17T04:25:15.098Z,-0.33
2023-03-17T04:27:43.600Z,-0.34
2023-03-17T04:30:13.962Z,-0.37
2023-03-17T04:32:42.195Z,-0.36
2023-03-17T04:35:15.839Z,-0.32
2023-03-17T04:37:44.274Z,-0.29
2023-03-17T04:40:14.051Z,-0.27
2023-03-17T04:42:42.345Z,-0.28
2023-03-17T04:45:12.997Z,-0.33
2023-03-17T04:47:41.352Z,-0.38
2023-03-17T04:50:10.719Z,-0.45
2023-03-17T04:53:19.170Z,-0.51
2023-03-17T04:55:47.238Z,-0.54
2023-03-17T04:58:29.479Z,-0.52
2023-03-17T05:00:59.382Z,-0.47
2023-03-17T05:03:28.727Z,-0.42
2023-03-17T05:05:58.036Z,-0.36
2023-03-17T05:08:28.649Z,-0.28
2023-03-17T05:10:57.617Z,-0.24
2023-03-17T05:13:26.420Z,-0.24
2023-03-17T05:15:55.962Z,-0.26
2023-03-17T05:18:25.588Z,-0.27
2023-03-17T05:20:53.793Z,-0.28
2023-03-17T05:23:23.265Z,-0.27
2023-03-17T05:25:51.327Z,-0.24
2023-03-17T05:28:22.387Z,-0.21
2023-03-17T05:30:51.140Z,-0.19
2023-03-17T05:33:20.328Z,-0.17
2023-03-17T05:35:49.443Z,-0.16
2023-03-17T05:38:17.482Z,-0.13
2023-03-17T05:40:45.944Z,-0.06
2023-03-17T05:43:14.164Z,-0.00
2023-03-17T05:45:42.416Z,0.06
2023-03-17T05:48:12.431Z,0.13
2023-03-17T05:50:41.850Z,0.22
2023-03-17T05:53:10.815Z,0.28
2023-03-17T05:55:39.544Z,0.33
2023-03-17T05:58:08.008Z,0.38
2023-03-17T06:05:53.856Z,0.48
2023-03-17T06:08:28.379Z,0.53
2023-03-17T06:10:56.914Z,0.55
2023-03-17T06:13:24.785Z,0.58
2023-03-17T06:15:52.836Z,0.65
2023-03-17T06:18:22.314Z,0.72
2023-03-17T06:20:51.224Z,0.77
2023-03-17T06:27:11.061Z,0.84
2023-03-17T06:29:38.957Z,0.83
2023-03-17T06:32:19.699Z,0.86
2023-03-17T06:34:48.492Z,0.93
2023-03-17T06:37:16.700Z,1.00
2023-03-17T06:39:45.332Z,1.08
2023-03-17T06:42:13.311Z,1.07
2023-03-17T06:44:41.760Z,1.12
2023-03-17T06:47:10.597Z,1.16
2023-03-17T06:49:38.644Z,1.22
2023-03-17T06:52:06.600Z,1.31
2023-03-17T06:54:36.649Z,1.39
2023-03-17T06:57:04.768Z,1.50
2023-03-17T06:59:33.429Z,1.61
2023-03-17T07:02:01.371Z,1.67
2023-03-17T07:04:29.354Z,1.74
2023-03-17T07:07:37.767Z,1.84
2023-03-17T07:10:07.077Z,1.97
2023-03-17T07:12:35.122Z,2.12
2023-03-17T07:15:03.759Z,2.29
2023-03-17T07:17:31.901Z,2.57
2023-03-17T07:20:01.521Z,3.19
2023-03-17T07:22:29.558Z,3.93
2023-03-17T07:24:57.486Z,4.69
2023-03-17T07:27:26.701Z,5.37
2023-03-17T07:29:54.696Z,5.94
2023-03-17T07:32:22.880Z,6.42
2023-03-17T07:34:50.751Z,6.84
2023-03-17T07:37:19.614Z,7.35
2023-03-17T07:39:48.734Z,7.84
2023-03-17T07:42:17.825Z,8.33
2023-03-17T07:44:46.034Z,8.69
2023-03-17T07:47:14.867Z,9.14
2023-03-17T07:49:43.099Z,9.71
2023-03-17T07:52:12.879Z,10.23
2023-03-17T07:54:42.979Z,10.68
2023-03-17T07:57:12.294Z,11.06
2023-03-17T07:59:41.766Z,11.31
2023-03-17T08:02:16.487Z,11.64
2023-03-17T08:04:45.689Z,11.96
2023-03-17T08:07:14.775Z,12.49
2023-03-17T08:09:43.038Z,13.08
2023-03-17T08:12:11.896Z,13.57
2023-03-17T08:14:41.527Z,13.93
2023-03-17T08:17:10.627Z,14.13
2023-03-17T08:19:38.620Z,14.32
2023-03-17T08:22:06.971Z,14.48
2023-03-17T08:24:35.581Z,14.69
2023-03-17T08:27:04.271Z,14.94
2023-03-17T08:29:32.280Z,15.16
2023-03-17T08:32:00.535Z,15.41
2023-03-17T08:34:28.582Z,15.45
2023-03-17T08:36:56.782Z,15.41
2023-03-17T08:39:24.644Z,15.45
2023-03-17T08:41:53.244Z,15.47
2023-03-17T08:44:21.961Z,15.39
2023-03-17T08:46:51.596Z,15.23
2023-03-17T08:49:19.620Z,15.05
2023-03-17T08:51:47.568Z,15.06
2023-03-17T08:54:15.998Z,15.16
2023-03-17T08:56:44.069Z,15.22
2023-03-17T08:59:12.628Z,15.29
2023-03-17T09:01:42.118Z,15.33
2023-03-17T09:04:11.161Z,15.36
2023-03-17T09:06:44.047Z,15.40
2023-03-17T09:09:18.648Z,15.40
2023-03-17T09:11:46.618Z,15.57
2023-03-17T09:14:15.433Z,15.60
2023-03-17T09:16:43.366Z,15.69
2023-03-17T09:19:11.442Z,15.66
2023-03-17T09:21:39.384Z,15.53
2023-03-17T09:24:07.416Z,15.65
2023-03-17T09:26:35.382Z,15.97
2023-03-17T09:29:04.775Z,16.31
2023-03-17T09:31:33.910Z,16.55
2023-03-17T09:34:02.650Z,16.69
2023-03-17T09:36:31.838Z,16.82
2023-03-17T09:39:00.569Z,16.89
2023-03-17T09:42:06.376Z,16.94
2023-03-17T09:44:46.164Z,17.16
2023-03-17T09:47:42.814Z,17.22
2023-03-17T09:50:17.780Z,17.30
2023-03-17T09:52:46.283Z,17.41
2023-03-17T10:00:50.686Z,17.59
2023-03-17T10:03:26.269Z,17.38
2023-03-17T10:06:33.756Z,17.52
2023-03-17T10:09:18.757Z,17.79
2023-03-17T10:11:50.785Z,17.75
2023-03-17T10:14:38.656Z,17.61
2023-03-17T10:17:18.552Z,17.63
2023-03-17T10:20:12.340Z,17.55
2023-03-17T10:23:08.427Z,17.29
2023-03-17T10:25:37.479Z,17.22
2023-03-17T10:28:23.683Z,17.47
2023-03-17T10:30:52.838Z,17.84
2023-03-17T10:33:21.679Z,17.93
2023-03-17T10:35:49.794Z,17.89
2023-03-17T10:38:23.303Z,18.02
2023-03-17T10:41:00.085Z,18.25
2023-03-17T10:43:36.296Z,18.31
2023-03-17T10:46:06.836Z,18.11
2023-03-17T10:48:38.893Z,18.02
2023-03-17T10:51:11.816Z,18.09
2023-03-17T10:53:43.957Z,18.02
2023-03-17T10:56:24.762Z,17.86
2023-03-17T10:58:55.659Z,17.68
2023-03-17T11:01:36.056Z,17.59
2023-03-17T11:04:29.768Z,17.52
2023-03-17T11:07:00.450Z,17.46
2023-03-17T11:09:35.166Z,17.47
2023-03-17T11:12:08.615Z,17.35
2023-03-17T11:14:36.622Z,17.09
2023-03-17T11:17:17.640Z,17.03
2023-03-17T11:20:13.206Z,17.22
2023-03-17T11:22:46.663Z,17.36
2023-03-17T11:25:23.525Z,17.44
2023-03-17T11:28:16.994Z,17.41
2023-03-17T11:31:08.646Z,17.28
2023-03-17T11:33:57.413Z,17.26
2023-03-17T11:36:50.683Z,17.41
2023-03-17T11:39:46.274Z,17.47
2023-03-17T11:42:41.194Z,17.70
2023-03-17T11:45:12.563Z,17.70
2023-03-17T11:47:43.456Z,17.75
2023-03-17T11:50:23.524Z,18.04
2023-03-17T11:52:58.048Z,18.28
2023-03-17T11:55:49.096Z,18.38
2023-03-17T11:58:31.719Z,18.06
2023-03-17T12:01:02.348Z,17.96
2023-03-17T12:03:52.172Z,17.85
2023-03-17T12:06:32.620Z,17.80
2023-03-17T12:09:08.625Z,17.90
2023-03-17T12:11:40.837Z,18.02
2023-03-17T12:14:33.901Z,18.11
2023-03-17T12:17:21.362Z,18.35
2023-03-17T12:20:28.193Z,18.65
2023-03-17T12:23:06.744Z,18.62
2023-03-17T12:25:46.665Z,18.47
2023-03-17T12:28:20.283Z,18.75
2023-03-17T12:30:56.049Z,19.20
2023-03-17T12:33:43.985Z,19.44
2023-03-17T12:36:16.309Z,19.61
2023-03-17T12:39:02.122Z,19.77
2023-03-17T12:41:47.642Z,19.91
2023-03-17T12:44:45.895Z,19.86
2023-03-17T12:47:29.148Z,19.97
2023-03-17T12:50:10.853Z,20.14
2023-03-17T12:53:20.453Z,20.22
2023-03-17T12:55:52.665Z,20.08
2023-03-17T12:58:29.150Z,19.97
2023-03-17T13:01:23.271Z,19.85
2023-03-17T13:04:27.956Z,19.60
2023-03-17T13:07:17.359Z,18.96
2023-03-17T13:09:49.891Z,18.43
2023-03-17T13:12:39.809Z,18.34
2023-03-17T13:15:30.844Z,18.50
2023-03-17T13:18:14.576Z,18.54
2023-03-17T13:20:42.506Z,18.42
2023-03-17T13:23:10.430Z,18.24
2023-03-17T13:25:38.402Z,17.94
2023-03-17T13:28:12.442Z,17.69
2023-03-17T13:30:40.375Z,17.50
2023-03-17T13:33:11.572Z,17.42
2023-03-17T13:35:46.319Z,17.30
2023-03-17T13:38:42.129Z,17.26
2023-03-17T13:41:37.905Z,17.37
2023-03-17T13:44:15.866Z,17.67
2023-03-17T13:46:47.091Z,17.86
2023-03-17T13:49:26.980Z,17.94
2023-03-17T13:52:01.980Z,18.08
2023-03-17T13:54:40.739Z,18.39
2023-03-17T13:57:29.368Z,18.61
2023-03-17T14:00:25.945Z,18.52
2023-03-17T14:03:12.261Z,18.29
2023-03-17T14:05:42.773Z,18.11
2023-03-17T14:08:16.602Z,17.96
2023-03-17T14:10:54.394Z,17.76
2023-03-17T14:13:37.021Z,17.48
2023-03-17T14:16:14.305Z,17.33
2023-03-17T14:18:54.130Z,17.47
2023-03-17T14:21:25.013Z,17.55
2023-03-17T14:23:56.717Z,17.67
2023-03-17T14:26:26.946Z,17.79
2023-03-17T14:28:55.772Z,17.70
2023-03-17T14:31:27.388Z,17.49
2023-03-17T14:33:58.035Z,17.13
2023-03-17T14:36:28.241Z,16.78
2023-03-17T14:38:57.301Z,16.46
2023-03-17T14:41:29.408Z,16.24
2023-03-17T14:43:58.955Z,16.09
2023-03-17T14:46:32.850Z,16.08
2023-03-17T14:49:20.963Z,16.15
2023-03-17T14:51:51.382Z,16.34
2023-03-17T14:54:28.742Z,16.46
2023-03-17T14:57:02.417Z,16.57
2023-03-17T14:59:35.039Z,16.61
2023-03-17T15:02:23.697Z,16.56
2023-03-17T15:04:59.081Z,16.39
2023-03-17T15:07:39.969Z,16.05
2023-03-17T15:10:20.007Z,15.74
2023-03-17T15:12:48.777Z,15.45
2023-03-17T15:15:27.594Z,15.34
2023-03-17T15:18:03.360Z,15.35
2023-03-17T15:20:35.591Z,15.36
2023-03-17T15:23:05.985Z,15.30
2023-03-17T15:25:35.382Z,15.11
2023-03-17T15:28:11.325Z,14.96
2023-03-17T15:30:51.295Z,14.75
2023-03-17T15:33:39.903Z,14.58
2023-03-17T15:36:29.207Z,14.30
2023-03-17T15:38:59.228Z,14.03
2023-03-17T15:41:27.254Z,13.85
2023-03-17T15:43:55.556Z,13.69
2023-03-17T15:46:27.745Z,13.50
2023-03-17T15:48:55.714Z,13.29
2023-03-17T15:51:23.680Z,13.08
2023-03-17T15:53:51.569Z,12.96
2023-03-17T15:56:21.393Z,12.86
2023-03-17T15:58:52.411Z,12.79
2023-03-17T16:01:21.305Z,12.70
2023-03-17T16:03:49.673Z,12.56
2023-03-17T16:06:21.500Z,12.41
2023-03-17T16:08:50.720Z,12.30
2023-03-17T16:11:28.394Z,12.23
2023-03-17T16:13:59.708Z,12.13
2023-03-17T16:16:36.794Z,12.04
2023-03-17T16:19:07.121Z,11.95
2023-03-17T16:21:35.058Z,11.88
2023-03-17T16:24:03.160Z,11.81
2023-03-17T16:26:31.137Z,11.74
2023-03-17T16:28:59.149Z,11.68
2023-03-17T16:31:31.775Z,11.65
2023-03-17T16:34:00.229Z,11.60
2023-03-17T16:36:28.176Z,11.54
2023-03-17T16:38:56.047Z,11.47
2023-03-17T16:41:27.457Z,11.40
2023-03-17T16:44:01.406Z,11.33
2023-03-17T16:46:34.993Z,11.25
2023-03-17T16:49:04.370Z,11.18
2023-03-17T16:51:32.250Z,11.09
2023-03-17T16:54:00.249Z,10.98
2023-03-17T16:56:28.943Z,10.92
2023-03-17T16:58:57.383Z,10.85
2023-03-17T17:01:28.117Z,10.77
2023-03-17T17:03:56.688Z,10.69
2023-03-17T17:06:24.794Z,10.63
2023-03-17T17:08:53.096Z,10.57
2023-03-17T17:11:21.673Z,10.50
2023-03-17T17:13:50.050Z,10.42
2023-03-17T17:16:23.101Z,10.34
2023-03-17T17:18:51.081Z,10.26
2023-03-17T17:21:19.261Z,10.21
2023-03-17T17:23:47.295Z,10.17
2023-03-17T17:26:15.818Z,10.11
2023-03-17T17:28:43.767Z,10.04
2023-03-17T17:31:11.900Z,9.99
2023-03-17T17:33:40.389Z,9.97
2023-03-17T17:36:15.026Z,9.93
2023-03-17T17:38:43.841Z,9.86
2023-03-17T17:41:12.962Z,9.80
2023-03-17T17:43:41.264Z,9.72
2023-03-17T17:46:17.094Z,9.66
2023-03-17T17:48:45.538Z,9.57
2023-03-17T17:51:14.031Z,9.51
2023-03-17T17:53:42.217Z,9.49
2023-03-17T17:56:18.465Z,9.46
2023-03-17T17:58:46.672Z,9.42
2023-03-17T18:01:19.907Z,9.39
2023-03-17T18:03:48.562Z,9.38
2023-03-17T18:06:18.021Z,9.35
2023-03-17T18:08:46.310Z,9.32
2023-03-17T18:11:14.260Z,9.30
2023-03-17T18:13:42.269Z,9.24
2023-03-17T18:16:15.182Z,9.20
2023-03-17T18:18:45.845Z,9.14
2023-03-17T18:21:14.574Z,9.06
2023-03-17T18:23:47.073Z,9.01
2023-03-17T18:26:17.464Z,8.97
2023-03-17T18:28:45.541Z,8.92
2023-03-17T18:31:18.868Z,8.88
2023-03-17T18:33:49.674Z,8.82
2023-03-17T18:36:19.904Z,8.76
2023-03-17T18:38:47.963Z,8.72
2023-03-17T18:41:15.959Z,8.68
2023-03-17T18:43:45.041Z,8.65
2023-03-17T18:46:13.180Z,8.60
2023-03-17T18:48:41.257Z,8.56
2023-03-17T18:51:09.740Z,8.49
2023-03-17T18:53:39.338Z,8.43
2023-03-17T18:56:07.661Z,8.40
2023-03-17T18:58:36.460Z,8.36
2023-03-17T19:01:33.371Z,8.32
2023-03-17T19:04:26.306Z,8.24
2023-03-17T19:06:54.243Z,8.15
2023-03-17T19:09:22.447Z,8.08
2023-03-17T19:11:50.396Z,8.01
2023-03-17T19:14:18.324Z,7.95
2023-03-17T19:16:46.784Z,7.91
2023-03-17T19:19:14.677Z,7.87
2023-03-17T19:21:42.554Z,7.84
2023-03-17T19:24:12.242Z,7.81
2023-03-17T19:26:40.206Z,7.78
2023-03-17T19:29:10.087Z,7.75
2023-03-17T19:31:41.540Z,7.74
2023-03-17T19:34:12.613Z,7.72
2023-03-17T19:36:43.154Z,7.70
2023-03-17T19:39:11.106Z,7.68
2023-03-17T19:41:39.317Z,7.66
2023-03-17T19:44:07.830Z,7.62
2023-03-17T19:46:37.311Z,7.59
2023-03-17T19:49:05.532Z,7.56
2023-03-17T19:51:36.133Z,7.50
2023-03-17T19:54:05.509Z,7.43
2023-03-17T19:56:33.886Z,7.37
2023-03-17T19:59:02.262Z,7.34
2023-03-17T20:01:32.136Z,7.32
2023-03-17T20:04:00.596Z,7.30
2023-03-17T20:06:29.690Z,7.28
2023-03-17T20:08:57.985Z,7.26
2023-03-17T20:11:25.915Z,7.23
2023-03-17T20:13:53.786Z,7.20
2023-03-17T20:16:22.197Z,7.16
2023-03-17T20:18:50.101Z,7.13
2023-03-17T20:21:18.133Z,7.12
2023-03-17T20:23:46.337Z,7.14
2023-03-17T20:26:14.321Z,7.13
2023-03-17T20:28:42.472Z,7.12
2023-03-17T20:31:10.773Z,7.10
2023-03-17T20:33:38.914Z,7.07
2023-03-17T20:36:07.166Z,7.05
2023-03-17T20:38:37.046Z,7.03
2023-03-17T20:41:07.609Z,7.00
2023-03-17T20:43:38.277Z,6.96
2023-03-17T20:46:15.191Z,6.93
2023-03-17T20:48:44.558Z,6.91
2023-03-17T20:51:16.602Z,6.89
2023-03-17T20:53:46.398Z,6.85
2023-03-17T20:56:16.268Z,6.79
2023-03-17T20:58:45.529Z,6.73
2023-03-17T21:01:14.650Z,6.67
2023-03-17T21:03:44.110Z,6.59
2023-03-17T21:06:12.421Z,6.53
2023-03-17T21:08:40.864Z,6.48
2023-03-17T21:11:11.999Z,6.43
2023-03-17T21:13:40.144Z,6.40
2023-03-17T21:16:08.719Z,6.35
2023-03-17T21:18:37.165Z,6.33
2023-03-17T21:21:05.314Z,6.29
2023-03-17T21:23:33.265Z,6.28
2023-03-17T21:26:01.318Z,6.25
2023-03-17T21:28:29.232Z,6.21
2023-03-17T21:30:57.709Z,6.15
2023-03-17T21:33:25.752Z,6.11
2023-03-17T21:35:53.693Z,6.07
2023-03-17T21:38:22.165Z,6.02
2023-03-17T21:40:50.210Z,5.98
2023-03-17T21:43:18.857Z,5.94
2023-03-17T21:45:46.930Z,5.91
2023-03-17T21:48:15.188Z,5.86
2023-03-17T21:50:44.227Z,5.82
2023-03-17T21:53:16.778Z,5.80
2023-03-17T21:55:45.395Z,5.79
2023-03-17T21:58:13.460Z,5.78
2023-03-17T22:00:45.630Z,5.79
2023-03-17T22:03:14.258Z,5.78
2023-03-17T22:05:42.409Z,5.77
2023-03-17T22:08:10.708Z,5.74
2023-03-17T22:10:40.200Z,5.72
2023-03-17T22:13:08.093Z,5.68
2023-03-17T22:15:36.528Z,5.66
2023-03-17T22:18:05.182Z,5.64
2023-03-17T22:20:33.466Z,5.64
2023-03-17T22:23:02.324Z,5.63
2023-03-17T22:25:30.261Z,5.61
2023-03-17T22:27:58.193Z,5.56
2023-03-17T22:30:26.152Z,5.54
2023-03-17T22:32:54.135Z,5.52
2023-03-17T22:35:23.526Z,5.52
2023-03-17T22:37:51.593Z,5.53
2023-03-17T22:40:19.707Z,5.52
2023-03-17T22:42:47.603Z,5.52
2023-03-17T22:45:16.190Z,5.53
2023-03-17T22:47:44.820Z,5.50
2023-03-17T22:50:13.129Z,5.47
2023-03-17T22:52:41.659Z,5.43
2023-03-17T22:55:10.738Z,5.38
2023-03-17T22:57:38.723Z,5.35
2023-03-17T23:00:17.058Z,5.32
2023-03-17T23:02:45.916Z,5.28
2023-03-17T23:05:14.677Z,5.24
2023-03-17T23:07:51.575Z,5.21
2023-03-17T23:10:25.424Z,5.19
2023-03-17T23:12:54.024Z,5.15
2023-03-17T23:15:22.792Z,5.12
2023-03-17T23:17:52.124Z,5.10
2023-03-17T23:20:20.191Z,5.09
2023-03-17T23:22:48.344Z,5.04
2023-03-17T23:25:16.441Z,5.01
2023-03-17T23:27:45.240Z,4.97
2023-03-17T23:30:15.248Z,4.93
2023-03-17T23:32:43.353Z,4.91
2023-03-17T23:35:13.628Z,4.91
2023-03-17T23:37:42.007Z,4.93
2023-03-17T23:40:11.641Z,4.95
2023-03-17T23:42:39.583Z,4.93
2023-03-17T23:45:08.695Z,4.91
2023-03-17T23:47:38.442Z,4.89
2023-03-17T23:50:07.478Z,4.87
2023-03-17T23:52:36.534Z,4.83
2023-03-17T23:55:06.070Z,4.81
2023-03-17T23:57:35.081Z,4.80
